createdAt,value
2023-01-28T00:01:05.511Z,83.21
2023-01-28T00:03:32.047Z,83.95
2023-01-28T00:06:04.081Z,83.84
2023-01-28T00:08:30.751Z,82.83
2023-01-28T00:11:01.487Z,82.56
2023-01-28T00:13:29.294Z,82.57
2023-01-28T00:16:00.406Z,82.89
2023-01-28T00:18:28.056Z,81.89
2023-01-28T00:21:01.366Z,81.92
2023-01-28T00:23:29.647Z,82.32
2023-01-28T00:25:59.777Z,82.31
2023-01-28T00:28:26.671Z,82.13
2023-01-28T00:30:53.481Z,82.44
2023-01-28T00:33:20.162Z,82.50
2023-01-28T00:35:47.092Z,82.99
2023-01-28T00:38:13.699Z,83.27
2023-01-28T00:40:40.293Z,83.12
2023-01-28T00:43:06.889Z,82.99
2023-01-28T00:45:33.522Z,83.76
2023-01-28T00:48:00.098Z,83.90
2023-01-28T00:50:26.662Z,83.86
2023-01-28T00:52:53.282Z,84.18
2023-01-28T00:55:19.994Z,83.65
2023-01-28T00:57:47.166Z,83.99
2023-01-28T01:00:14.014Z,84.40
2023-01-28T01:02:42.156Z,84.29
2023-01-28T01:05:09.273Z,84.48
2023-01-28T01:07:41.588Z,84.78
2023-01-28T01:10:13.581Z,84.54
2023-01-28T01:12:40.748Z,84.11
2023-01-28T01:15:11.002Z,83.95
2023-01-28T01:17:39.068Z,83.87
2023-01-28T01:20:09.455Z,83.98
2023-01-28T01:22:36.747Z,83.98
2023-01-28T01:25:04.909Z,84.13
2023-01-28T01:27:32.324Z,84.42
2023-01-28T01:29:59.122Z,84.42
2023-01-28T01:32:31.173Z,84.12
2023-01-28T01:34:58.299Z,84.23
2023-01-28T01:37:25.458Z,83.68
2023-01-28T01:39:52.148Z,83.22
2023-01-28T01:42:19.322Z,83.63
2023-01-28T01:45:01.623Z,83.24
2023-01-28T01:47:38.985Z,82.21
2023-01-28T01:50:23.759Z,81.79
2023-01-28T01:52:54.815Z,82.34
2023-01-28T01:55:25.716Z,82.54
2023-01-28T01:57:55.897Z,82.17
2023-01-28T02:00:23.787Z,82.40
2023-01-28T02:02:52.862Z,81.76
2023-01-28T02:05:22.306Z,81.27
2023-01-28T02:07:54.975Z,81.38
2023-01-28T02:10:23.173Z,81.87
2023-01-28T02:12:56.091Z,81.47
2023-01-28T02:15:26.014Z,81.40
2023-01-28T02:17:52.913Z,81.46
2023-01-28T02:20:31.776Z,81.88
2023-01-28T02:23:20.604Z,81.87
2023-01-28T02:26:19.408Z,80.87
2023-01-28T02:29:09.263Z,81.36
2023-01-28T02:31:47.773Z,81.16
2023-01-28T02:34:29.527Z,81.21
2023-01-28T02:37:31.141Z,81.16
2023-01-28T02:40:02.682Z,81.23
2023-01-28T02:42:34.072Z,81.14
2023-01-28T02:45:00.700Z,80.44
2023-01-28T02:47:45.792Z,80.52
2023-01-28T02:50:15.703Z,80.25
2023-01-28T02:53:38.318Z,80.58
2023-01-28T02:56:14.737Z,80.90
2023-01-28T02:59:22.840Z,81.31
2023-01-28T03:01:58.382Z,80.52
2023-01-28T03:04:32.154Z,80.83
2023-01-28T03:07:04.196Z,80.71
2023-01-28T03:09:32.221Z,80.95
2023-01-28T03:12:27.967Z,80.96
2023-01-28T03:15:27.364Z,80.61
2023-01-28T03:18:19.914Z,81.15
2023-01-28T03:21:13.457Z,80.90
2023-01-28T03:24:19.015Z,81.33
2023-01-28T03:27:35.007Z,81.23
2023-01-28T03:30:30.283Z,81.03
2023-01-28T03:33:16.525Z,80.91
2023-01-28T03:36:02.209Z,80.72
2023-01-28T03:38:41.992Z,81.70
2023-01-28T03:41:11.453Z,81.44
2023-01-28T03:43:38.892Z,81.08
2023-01-28T03:46:06.402Z,80.69
2023-01-28T03:48:33.318Z,80.90
2023-01-28T03:51:03.264Z,81.42
2023-01-28T03:53:30.141Z,81.09
2023-01-28T03:55:57.750Z,80.64
2023-01-28T03:58:27.084Z,80.55
2023-01-28T04:00:53.865Z,80.42
2023-01-28T04:03:21.483Z,80.17
2023-01-28T04:06:07.395Z,80.92
2023-01-28T04:08:56.404Z,81.35
2023-01-28T04:11:53.415Z,81.31
2023-01-28T04:14:42.444Z,81.41
2023-01-28T04:17:13.384Z,80.88
2023-01-28T04:19:40.372Z,80.27
2023-01-28T04:22:11.247Z,80.37
2023-01-28T04:24:39.100Z,79.97
2023-01-28T04:27:05.716Z,79.46
2023-01-28T04:29:32.196Z,79.53
2023-01-28T04:32:11.835Z,79.15
2023-01-28T04:35:04.472Z,79.11
2023-01-28T04:37:49.063Z,80.02
2023-01-28T04:40:36.615Z,79.97
2023-01-28T04:43:11.976Z,79.79
2023-01-28T04:45:49.545Z,80.00
2023-01-28T04:48:36.380Z,80.33
2023-01-28T04:51:30.354Z,80.69
2023-01-28T04:54:14.987Z,80.24
2023-01-28T04:56:41.724Z,80.22
2023-01-28T04:59:08.957Z,80.00
2023-01-28T05:01:35.779Z,79.98
2023-01-28T05:04:05.572Z,79.48
2023-01-28T05:06:34.564Z,79.56
2023-01-28T05:09:06.482Z,80.31
2023-01-28T05:11:32.982Z,80.67
2023-01-28T05:14:03.495Z,80.72
2023-01-28T05:16:37.618Z,81.45
2023-01-28T05:19:04.222Z,81.69
2023-01-28T05:21:36.864Z,81.17
2023-01-28T05:24:08.094Z,81.56
2023-01-28T05:26:34.628Z,81.17
2023-01-28T05:29:01.070Z,82.44
2023-01-28T05:31:27.541Z,81.29
2023-01-28T05:33:54.056Z,80.77
2023-01-28T05:36:22.008Z,81.29
2023-01-28T05:38:48.714Z,81.25
2023-01-28T05:41:15.368Z,80.65
2023-01-28T05:43:44.011Z,80.86
2023-01-28T05:46:26.394Z,80.50
2023-01-28T05:49:16.602Z,81.07
2023-01-28T05:51:55.734Z,81.65
2023-01-28T05:54:22.679Z,81.93
2023-01-28T05:56:49.274Z,81.38
2023-01-28T05:59:16.893Z,81.56
2023-01-28T06:01:44.400Z,81.92
2023-01-28T06:04:10.925Z,81.25
2023-01-28T06:06:38.872Z,81.16
2023-01-28T06:09:05.937Z,81.23
2023-01-28T06:11:32.483Z,81.35
2023-01-28T06:14:02.702Z,82.13
2023-01-28T06:16:41.698Z,81.52
2023-01-28T06:19:10.821Z,81.79
2023-01-28T06:21:37.666Z,81.19
2023-01-28T06:24:04.576Z,80.60
2023-01-28T06:26:31.035Z,81.13
2023-01-28T06:28:57.463Z,82.10
2023-01-28T06:31:23.845Z,81.65
2023-01-28T06:33:50.363Z,81.15
2023-01-28T06:36:16.910Z,81.73
2023-01-28T06:38:43.474Z,81.67
2023-01-28T06:41:10.003Z,81.44
2023-01-28T06:43:36.469Z,81.85
2023-01-28T06:46:02.966Z,82.13
2023-01-28T06:48:29.426Z,82.63
2023-01-28T06:50:55.976Z,81.49
2023-01-28T06:53:22.424Z,81.20
2023-01-28T06:55:49.175Z,82.42
2023-01-28T06:58:15.705Z,81.70
2023-01-28T07:00:42.166Z,82.36
2023-01-28T07:03:08.710Z,81.76
2023-01-28T07:05:35.199Z,81.43
2023-01-28T07:08:02.297Z,82.49
2023-01-28T07:10:30.164Z,81.76
2023-01-28T07:12:56.962Z,82.08
2023-01-28T07:15:23.586Z,82.12
2023-01-28T07:17:52.861Z,81.34
2023-01-28T07:20:19.265Z,81.30
2023-01-28T07:22:46.164Z,81.99
2023-01-28T07:25:14.525Z,81.84
2023-01-28T07:27:47.650Z,80.93
2023-01-28T07:30:15.023Z,80.78
2023-01-28T07:32:41.634Z,81.29
2023-01-28T07:35:08.364Z,80.49
2023-01-28T07:37:34.892Z,80.58
2023-01-28T07:40:01.536Z,81.21
2023-01-28T07:42:28.296Z,80.20
2023-01-28T07:44:54.715Z,81.08
2023-01-28T07:47:21.318Z,80.72
2023-01-28T07:49:47.843Z,81.30
2023-01-28T07:52:14.700Z,81.02
2023-01-28T07:54:41.092Z,80.38
2023-01-28T07:57:09.909Z,80.84
2023-01-28T07:59:38.992Z,80.24
2023-01-28T08:02:05.468Z,80.09
2023-01-28T08:04:31.972Z,80.89
2023-01-28T08:06:58.585Z,81.50
2023-01-28T08:09:25.213Z,82.04
2023-01-28T08:11:51.774Z,81.82
2023-01-28T08:14:18.235Z,81.20
2023-01-28T08:16:44.652Z,80.42
2023-01-28T08:19:11.245Z,80.23
2023-01-28T08:21:37.744Z,80.24
2023-01-28T08:24:04.605Z,80.33
2023-01-28T08:26:31.047Z,80.35
2023-01-28T08:28:57.527Z,79.87
2023-01-28T08:31:24.061Z,80.13
2023-01-28T08:33:50.484Z,80.28
2023-01-28T08:36:16.933Z,80.03
2023-01-28T08:38:43.479Z,80.29
2023-01-28T08:41:09.918Z,79.24
2023-01-28T08:43:36.400Z,79.52
2023-01-28T08:46:06.515Z,80.22
2023-01-28T08:48:33.044Z,79.92
2023-01-28T08:50:59.999Z,79.96
2023-01-28T08:53:26.599Z,79.19
2023-01-28T08:55:54.160Z,78.73
2023-01-28T08:58:21.241Z,78.90
2023-01-28T09:00:48.324Z,79.43
2023-01-28T09:03:15.240Z,80.04
2023-01-28T09:05:41.699Z,79.52
2023-01-28T09:08:10.989Z,78.50
2023-01-28T09:10:41.223Z,79.15
2023-01-28T09:13:10.440Z,78.49
2023-01-28T09:15:37.596Z,78.83
2023-01-28T09:18:04.244Z,79.40
2023-01-28T09:20:32.918Z,79.72
2023-01-28T09:23:00.688Z,79.27
2023-01-28T09:25:27.335Z,78.38
2023-01-28T09:27:53.758Z,77.82
2023-01-28T09:30:20.362Z,78.16
2023-01-28T09:32:50.412Z,77.93
2023-01-28T09:35:17.904Z,77.85
2023-01-28T09:37:44.360Z,76.95
2023-01-28T09:40:32.846Z,77.55
2023-01-28T09:43:06.433Z,77.65
2023-01-28T09:45:44.579Z,77.71
2023-01-28T09:48:16.001Z,76.76
2023-01-28T09:50:48.527Z,77.06
2023-01-28T09:53:22.726Z,76.30
2023-01-28T09:55:54.910Z,76.23
2023-01-28T09:58:21.861Z,76.50
2023-01-28T10:00:54.019Z,76.79
2023-01-28T10:03:45.230Z,72.87
2023-01-28T10:06:32.632Z,67.46
2023-01-28T10:09:32.900Z,62.43
2023-01-28T10:12:20.524Z,50.30
2023-01-28T10:14:56.763Z,50.42
2023-01-28T10:17:28.144Z,45.24
2023-01-28T10:19:59.962Z,41.77
2023-01-28T10:22:35.307Z,39.44
2023-01-28T10:25:06.857Z,43.04
2023-01-28T10:27:36.074Z,48.18
2023-01-28T10:30:25.375Z,48.75
2023-01-28T10:32:59.049Z,43.00
2023-01-28T10:35:26.513Z,41.26
2023-01-28T10:38:02.137Z,45.88
2023-01-28T10:40:29.055Z,43.70
2023-01-28T10:42:55.538Z,38.77
2023-01-28T10:45:26.770Z,36.01
2023-01-28T10:48:07.673Z,33.73
2023-01-28T10:50:35.553Z,32.31
2023-01-28T10:53:06.312Z,31.43
2023-01-28T10:55:50.637Z,30.87
2023-01-28T10:58:23.791Z,29.78
2023-01-28T11:01:07.271Z,33.32
2023-01-28T11:03:36.823Z,32.20
2023-01-28T11:06:03.824Z,31.54
2023-01-28T11:08:31.606Z,33.18
2023-01-28T11:10:58.519Z,34.12
2023-01-28T11:13:27.563Z,35.52
2023-01-28T11:15:53.958Z,34.11
2023-01-28T11:18:28.384Z,35.08
2023-01-28T11:21:15.611Z,35.27
2023-01-28T11:23:55.966Z,34.47
2023-01-28T11:26:28.039Z,31.81
2023-01-28T11:28:55.444Z,31.80
2023-01-28T11:31:26.461Z,34.12
2023-01-28T11:33:59.527Z,34.06
2023-01-28T11:36:31.073Z,34.24
2023-01-28T11:39:01.851Z,37.77
2023-01-28T11:41:36.794Z,40.05
2023-01-28T11:44:30.911Z,44.06
2023-01-28T11:47:25.679Z,47.10
2023-01-28T11:49:58.015Z,51.53
2023-01-28T11:53:06.629Z,52.16
2023-01-28T11:55:38.156Z,55.25
2023-01-28T11:58:32.015Z,54.32
2023-01-28T12:01:21.701Z,55.20
2023-01-28T12:04:33.355Z,56.71
2023-01-28T12:07:08.604Z,55.41
2023-01-28T12:10:13.762Z,58.37
2023-01-28T12:12:59.804Z,58.50
2023-01-28T12:15:43.367Z,57.68
2023-01-28T12:18:46.733Z,57.02
2023-01-28T12:21:31.519Z,57.63
2023-01-28T12:24:10.684Z,57.79
2023-01-28T12:26:39.843Z,58.29
2023-01-28T12:29:47.608Z,58.61
2023-01-28T12:32:49.207Z,58.60
2023-01-28T12:35:37.029Z,58.98
2023-01-28T12:38:32.533Z,59.57
2023-01-28T12:41:07.800Z,60.21
2023-01-28T12:43:47.229Z,60.23
2023-01-28T12:46:37.139Z,60.69
2023-01-28T12:49:07.565Z,61.77
2023-01-28T12:51:54.708Z,60.88
2023-01-28T12:54:31.212Z,60.03
2023-01-28T12:56:58.274Z,59.98
2023-01-28T12:59:30.510Z,60.29
2023-01-28T13:02:12.132Z,59.60
2023-01-28T13:05:04.844Z,59.87
2023-01-28T13:07:44.129Z,60.23
2023-01-28T13:10:23.810Z,60.42
2023-01-28T13:12:51.044Z,59.98
2023-01-28T13:15:19.885Z,60.77
2023-01-28T13:18:04.450Z,61.33
2023-01-28T13:20:47.948Z,60.42
2023-01-28T13:23:31.933Z,60.95
2023-01-28T13:26:27.929Z,62.40
2023-01-28T13:29:07.372Z,61.95
2023-01-28T13:31:39.536Z,61.39
2023-01-28T13:34:07.227Z,61.92
2023-01-28T13:36:43.812Z,61.77
2023-01-28T13:39:13.307Z,61.35
2023-01-28T13:41:52.092Z,61.77
2023-01-28T13:44:33.794Z,61.34
2023-01-28T13:47:09.322Z,61.05
2023-01-28T13:49:48.898Z,62.68
2023-01-28T13:52:23.024Z,62.69
2023-01-28T13:55:00.476Z,63.28
2023-01-28T13:58:05.247Z,62.97
2023-01-28T14:01:10.083Z,64.50
2023-01-28T14:04:07.871Z,64.45
2023-01-28T14:06:43.495Z,63.06
2023-01-28T14:09:29.701Z,64.02
2023-01-28T14:12:44.692Z,63.57
2023-01-28T14:15:35.614Z,61.71
2023-01-28T14:18:10.418Z,60.61
2023-01-28T14:20:46.095Z,59.69
2023-01-28T14:23:22.047Z,61.80
2023-01-28T14:26:42.162Z,63.42
2023-01-28T14:29:39.141Z,63.09
2023-01-28T14:32:11.868Z,63.13
2023-01-28T14:34:38.744Z,63.35
2023-01-28T14:37:09.690Z,63.99
2023-01-28T14:39:43.244Z,64.71
2023-01-28T14:42:19.632Z,65.66
2023-01-28T14:44:49.033Z,65.37
2023-01-28T14:47:49.520Z,61.51
2023-01-28T14:50:33.201Z,59.36
2023-01-28T14:53:16.311Z,59.63
2023-01-28T14:55:58.977Z,62.07
2023-01-28T14:58:33.396Z,63.04
2023-01-28T15:01:00.840Z,63.04
2023-01-28T15:03:29.588Z,64.77
2023-01-28T15:06:13.189Z,64.95
2023-01-28T15:08:40.472Z,65.77
2023-01-28T15:11:11.073Z,65.74
2023-01-28T15:13:41.210Z,65.89
2023-01-28T15:16:13.490Z,66.50
2023-01-28T15:18:43.760Z,66.70
2023-01-28T15:21:10.450Z,67.47
2023-01-28T15:23:39.945Z,68.85
2023-01-28T15:26:22.201Z,69.56
2023-01-28T15:28:51.357Z,70.05
2023-01-28T15:31:20.638Z,69.79
2023-01-28T15:33:56.437Z,70.38
2023-01-28T15:36:23.186Z,71.52
2023-01-28T15:38:49.764Z,72.03
2023-01-28T15:41:19.540Z,72.85
2023-01-28T15:43:49.236Z,73.41
2023-01-28T15:46:15.744Z,73.83
2023-01-28T15:48:47.284Z,74.88
2023-01-28T15:51:21.822Z,75.43
2023-01-28T15:53:51.907Z,75.97
2023-01-28T15:56:25.901Z,76.34
2023-01-28T15:58:52.816Z,76.48
2023-01-28T16:01:20.642Z,77.02
2023-01-28T16:04:00.884Z,77.28
2023-01-28T16:06:46.860Z,77.18
2023-01-28T16:09:31.784Z,78.01
2023-01-28T16:12:04.839Z,78.27
2023-01-28T16:14:34.348Z,78.37
2023-01-28T16:17:00.919Z,78.74
2023-01-28T16:19:49.319Z,79.02
2023-01-28T16:22:20.740Z,79.10
2023-01-28T16:24:52.950Z,79.06
2023-01-28T16:27:24.951Z,78.71
2023-01-28T16:29:51.597Z,79.20
2023-01-28T16:32:35.648Z,79.49
2023-01-28T16:35:03.328Z,80.21
2023-01-28T16:37:30.054Z,79.85
2023-01-28T16:39:58.146Z,79.82
2023-01-28T16:42:26.781Z,79.75
2023-01-28T16:44:53.231Z,80.34
2023-01-28T16:47:19.732Z,80.18
2023-01-28T16:49:46.761Z,80.72
2023-01-28T16:52:13.277Z,80.18
2023-01-28T16:54:42.260Z,80.00
2023-01-28T16:57:20.342Z,78.69
2023-01-28T16:59:46.789Z,77.91
2023-01-28T17:02:17.696Z,78.41
2023-01-28T17:04:44.123Z,78.41
2023-01-28T17:07:10.669Z,79.02
2023-01-28T17:09:37.131Z,78.63
2023-01-28T17:12:04.177Z,79.09
2023-01-28T17:14:30.726Z,78.41
2023-01-28T17:16:57.167Z,78.76
2023-01-28T17:19:23.638Z,78.70
2023-01-28T17:21:50.078Z,78.98
2023-01-28T17:24:16.655Z,79.06
2023-01-28T17:26:43.129Z,78.76
2023-01-28T17:29:09.635Z,78.23
2023-01-28T17:31:36.703Z,78.72
2023-01-28T17:34:03.507Z,78.93
2023-01-28T17:36:30.036Z,78.89
2023-01-28T17:38:56.536Z,78.59
2023-01-28T17:41:23.095Z,78.20
2023-01-28T17:43:51.419Z,78.09
2023-01-28T17:46:19.026Z,78.13
2023-01-28T17:48:46.051Z,78.16
2023-01-28T17:51:13.951Z,78.94
2023-01-28T17:53:44.692Z,78.80
2023-01-28T17:56:19.671Z,78.92
2023-01-28T17:58:53.922Z,79.17
2023-01-28T18:01:21.853Z,79.60
2023-01-28T18:03:48.885Z,79.50
2023-01-28T18:06:16.284Z,79.98
2023-01-28T18:08:43.010Z,79.88
2023-01-28T18:11:12.114Z,80.02
2023-01-28T18:13:39.872Z,80.07
2023-01-28T18:16:08.348Z,80.71
2023-01-28T18:18:35.048Z,80.46
2023-01-28T18:21:04.362Z,80.66
2023-01-28T18:23:32.518Z,80.77
2023-01-28T18:26:07.319Z,81.21
2023-01-28T18:28:33.796Z,81.18
2023-01-28T18:31:05.870Z,81.51
2023-01-28T18:33:32.361Z,81.40
2023-01-28T18:35:58.889Z,81.33
2023-01-28T18:38:25.335Z,80.66
2023-01-28T18:40:56.191Z,80.89
2023-01-28T18:43:22.709Z,81.10
2023-01-28T18:45:51.775Z,81.09
2023-01-28T18:48:19.143Z,81.35
2023-01-28T18:50:55.928Z,81.64
2023-01-28T18:53:22.933Z,81.55
2023-01-28T18:55:49.435Z,80.90
2023-01-28T18:58:16.178Z,81.56
2023-01-28T19:00:42.651Z,81.84
2023-01-28T19:03:09.145Z,81.78
2023-01-28T19:05:39.382Z,81.66
2023-01-28T19:08:07.429Z,81.69
2023-01-28T19:10:34.071Z,81.91
2023-01-28T19:13:00.692Z,82.12
2023-01-28T19:15:27.240Z,81.79
2023-01-28T19:17:53.770Z,81.40
2023-01-28T19:20:20.273Z,81.98
2023-01-28T19:22:46.855Z,81.60
2023-01-28T19:25:14.054Z,81.75
2023-01-28T19:27:40.821Z,81.79
2023-01-28T19:30:08.435Z,81.63
2023-01-28T19:32:34.959Z,81.69
2023-01-28T19:35:01.585Z,82.03
2023-01-28T19:37:28.081Z,81.41
2023-01-28T19:39:54.782Z,81.75
2023-01-28T19:42:21.278Z,81.89
2023-01-28T19:44:47.864Z,82.05
2023-01-28T19:47:15.394Z,82.10
2023-01-28T19:49:41.893Z,82.01
2023-01-28T19:52:10.711Z,82.08
2023-01-28T19:54:37.262Z,82.07
2023-01-28T19:57:03.855Z,82.40
2023-01-28T19:59:30.322Z,82.64
2023-01-28T20:01:56.867Z,82.10
2023-01-28T20:04:23.411Z,82.47
2023-01-28T20:06:50.150Z,82.65
2023-01-28T20:09:19.740Z,82.65
2023-01-28T20:11:46.434Z,82.24
2023-01-28T20:14:14.987Z,82.95
2023-01-28T20:16:41.990Z,82.80
2023-01-28T20:19:14.681Z,82.90
2023-01-28T20:21:41.128Z,82.71
2023-01-28T20:24:08.008Z,82.92
2023-01-28T20:26:37.253Z,82.38
2023-01-28T20:29:12.875Z,82.57
2023-01-28T20:31:41.489Z,83.14
2023-01-28T20:34:15.121Z,83.02
2023-01-28T20:36:41.845Z,82.41
2023-01-28T20:39:08.972Z,82.51
2023-01-28T20:41:35.395Z,82.65
2023-01-28T20:44:02.150Z,83.29
2023-01-28T20:46:31.310Z,82.96
2023-01-28T20:48:58.895Z,82.91
2023-01-28T20:51:28.383Z,83.63
2023-01-28T20:53:55.724Z,83.45
2023-01-28T20:56:24.164Z,83.59
2023-01-28T20:58:55.937Z,83.50
2023-01-28T21:01:25.080Z,83.35
2023-01-28T21:03:52.165Z,83.63
2023-01-28T21:06:19.322Z,83.31
2023-01-28T21:08:45.809Z,83.18
2023-01-28T21:11:13.381Z,83.12
2023-01-28T21:13:39.911Z,83.20
2023-01-28T21:16:06.968Z,84.00
2023-01-28T21:18:33.417Z,83.74
2023-01-28T21:21:08.485Z,83.81
2023-01-28T21:23:34.849Z,83.75
2023-01-28T21:26:05.203Z,83.67
2023-01-28T21:28:32.043Z,83.99
2023-01-28T21:31:11.091Z,83.91
2023-01-28T21:33:38.010Z,84.68
2023-01-28T21:36:09.596Z,84.49
2023-01-28T21:38:36.100Z,83.67
2023-01-28T21:41:03.290Z,83.52
2023-01-28T21:43:30.083Z,83.83
2023-01-28T21:45:57.577Z,84.16
2023-01-28T21:48:24.332Z,84.24
2023-01-28T21:51:09.201Z,84.67
2023-01-28T21:53:39.552Z,84.01
2023-01-28T21:56:07.243Z,84.23
2023-01-28T21:58:56.049Z,84.08
2023-01-28T22:01:23.417Z,83.86
2023-01-28T22:03:49.994Z,83.90
2023-01-28T22:06:16.545Z,84.28
2023-01-28T22:08:43.030Z,83.92
2023-01-28T22:11:09.784Z,84.23
2023-01-28T22:13:39.621Z,84.76
2023-01-28T22:16:06.625Z,84.23
2023-01-28T22:18:33.200Z,83.69
2023-01-28T22:21:02.232Z,83.96
2023-01-28T22:23:29.040Z,84.47
2023-01-28T22:25:56.661Z,84.94
2023-01-28T22:28:23.666Z,84.55
2023-01-28T22:30:50.302Z,84.75
2023-01-28T22:33:16.812Z,84.41
2023-01-28T22:35:43.344Z,84.79
2023-01-28T22:38:09.872Z,85.21
2023-01-28T22:40:36.603Z,84.86
2023-01-28T22:43:03.413Z,85.22
2023-01-28T22:45:30.119Z,85.04
2023-01-28T22:47:56.561Z,85.67
2023-01-28T22:50:23.053Z,85.26
2023-01-28T22:52:49.511Z,85.10
2023-01-28T22:55:16.083Z,85.47
2023-01-28T22:57:42.639Z,85.58
2023-01-28T23:00:12.834Z,85.27
2023-01-28T23:02:39.497Z,85.46
2023-01-28T23:05:06.517Z,85.04
2023-01-28T23:07:33.043Z,84.91
2023-01-28T23:09:59.492Z,85.52
2023-01-28T23:12:26.033Z,85.50
2023-01-28T23:15:11.177Z,85.44
2023-01-28T23:17:56.134Z,85.58
2023-01-28T23:20:40.933Z,85.71
2023-01-28T23:23:33.747Z,85.82
2023-01-28T23:26:00.222Z,85.76
2023-01-28T23:28:26.751Z,85.44
2023-01-28T23:30:53.451Z,85.55
2023-01-28T23:33:19.992Z,85.16
2023-01-28T23:35:46.421Z,84.88
2023-01-28T23:38:12.905Z,85.34
2023-01-28T23:40:39.466Z,85.29
2023-01-28T23:43:06.005Z,85.19
2023-01-28T23:45:32.484Z,85.03
2023-01-28T23:47:58.934Z,85.02
2023-01-28T23:50:25.329Z,85.57
2023-01-28T23:52:51.725Z,85.47
2023-01-28T23:55:18.177Z,85.26
2023-01-28T23:57:44.788Z,85.39
